EGGP - Liverpool Airport
Distance from station: E 5mi, 14km
Updated: 10/19/2017 9:20pm
Partly Cloudy
Partly Cloudy
 Wind from SSW
Wind: SSW 3 mph , 6 km/h
Temperature: 52°F , 11°C
Dew Point: 52°F , 11°C
Humidity: 100%
Barometer: 29.38 inHg , 995 hPa
Clouds: Partly Cloudy
Visibility: 6 miles , 10 km
Cloud details: Partly Cloudy 1000 ft
2017/10/20 04:20 EGGP 200420Z 21003KT 9999 SCT010 11/11 Q0995